createdAt,value
2019-03-17T00:00:37.934Z,93.40
2019-03-17T00:03:06.936Z,93.10
2019-03-17T00:05:36.228Z,93.30
2019-03-17T00:08:05.336Z,93.40
2019-03-17T00:10:34.508Z,93.50
2019-03-17T00:13:03.451Z,93.40
2019-03-17T00:15:32.661Z,93.70
2019-03-17T00:18:01.922Z,93.50
2019-03-17T00:20:30.988Z,93.60
2019-03-17T00:22:59.979Z,93.60
2019-03-17T00:25:28.981Z,93.80
2019-03-17T00:27:58.246Z,93.70
2019-03-17T00:30:27.339Z,93.80
2019-03-17T00:32:56.367Z,93.80
2019-03-17T00:35:25.555Z,93.70
2019-03-17T00:37:54.773Z,93.80
2019-03-17T00:40:23.770Z,93.80
2019-03-17T00:42:53.810Z,93.90
2019-03-17T00:45:22.957Z,93.80
2019-03-17T00:47:51.983Z,93.90
2019-03-17T00:50:21.149Z,93.80
2019-03-17T00:52:50.241Z,93.90
2019-03-17T00:55:19.485Z,94.00
2019-03-17T00:57:48.773Z,94.00
2019-03-17T01:00:17.975Z,94.10
2019-03-17T01:02:46.961Z,94.50
2019-03-17T01:05:16.224Z,94.30
2019-03-17T01:07:45.154Z,94.30
2019-03-17T01:10:14.458Z,94.30
2019-03-17T01:12:44.890Z,94.30
2019-03-17T01:15:14.260Z,94.30
2019-03-17T01:17:43.244Z,94.10
2019-03-17T01:20:12.500Z,93.90
2019-03-17T01:22:41.493Z,93.90
2019-03-17T01:25:10.523Z,93.90
2019-03-17T01:27:39.626Z,93.90
2019-03-17T01:30:11.159Z,94.00
2019-03-17T01:32:40.441Z,93.90
2019-03-17T01:35:10.328Z,94.00
2019-03-17T01:37:39.558Z,93.90
2019-03-17T01:40:10.492Z,93.90
2019-03-17T01:42:39.643Z,93.90
2019-03-17T01:45:09.958Z,94.00
2019-03-17T01:47:39.074Z,93.90
2019-03-17T01:50:09.719Z,94.00
2019-03-17T01:52:38.730Z,94.00
2019-03-17T01:55:08.458Z,93.90
2019-03-17T01:57:37.491Z,93.80
2019-03-17T02:00:09.297Z,93.80
2019-03-17T02:02:38.281Z,93.80
2019-03-17T02:05:07.485Z,94.20
2019-03-17T02:07:36.600Z,93.90
2019-03-17T02:10:07.297Z,94.00
2019-03-17T02:12:36.365Z,93.90
2019-03-17T02:15:07.497Z,94.00
2019-03-17T02:17:36.522Z,94.00
2019-03-17T02:20:08.408Z,94.00
2019-03-17T02:22:37.386Z,94.20
2019-03-17T02:25:07.271Z,94.30
2019-03-17T02:27:36.924Z,94.40
2019-03-17T02:30:08.922Z,94.50
2019-03-17T02:32:37.892Z,94.50
2019-03-17T02:35:07.093Z,94.50
2019-03-17T02:37:36.074Z,94.50
2019-03-17T02:40:06.666Z,94.80
2019-03-17T02:42:35.769Z,94.50
2019-03-17T02:45:07.628Z,94.50
2019-03-17T02:47:36.991Z,94.50
2019-03-17T02:50:07.368Z,94.60
2019-03-17T02:52:36.430Z,94.70
2019-03-17T02:55:07.515Z,95.00
2019-03-17T02:57:36.821Z,94.70
2019-03-17T03:00:10.516Z,94.80
2019-03-17T03:02:39.570Z,94.80
2019-03-17T03:05:09.051Z,94.90
2019-03-17T03:07:38.269Z,94.90
2019-03-17T03:10:07.993Z,95.10
2019-03-17T03:12:37.016Z,95.10
2019-03-17T03:15:10.471Z,95.00
2019-03-17T03:17:39.689Z,95.10
2019-03-17T03:20:09.505Z,95.10
2019-03-17T03:22:38.623Z,95.30
2019-03-17T03:25:09.225Z,95.20
2019-03-17T03:27:38.231Z,95.10
2019-03-17T03:30:12.866Z,95.20
2019-03-17T03:32:42.229Z,95.20
2019-03-17T03:35:11.417Z,95.30
2019-03-17T03:37:40.597Z,95.40
2019-03-17T03:40:11.689Z,95.40
2019-03-17T03:42:40.969Z,95.40
2019-03-17T03:45:11.835Z,95.50
2019-03-17T03:47:40.874Z,95.50
2019-03-17T03:50:11.280Z,95.60
2019-03-17T03:52:40.221Z,95.50
2019-03-17T03:55:09.725Z,95.60
2019-03-17T03:57:38.792Z,95.50
2019-03-17T04:00:13.445Z,95.60
2019-03-17T04:02:42.401Z,96.00
2019-03-17T04:05:11.447Z,95.80
2019-03-17T04:07:40.516Z,95.70
2019-03-17T04:10:10.519Z,95.80
2019-03-17T04:12:39.750Z,96.00
2019-03-17T04:15:10.867Z,95.70
2019-03-17T04:17:40.164Z,95.60
2019-03-17T04:20:11.060Z,95.50
2019-03-17T04:22:40.242Z,95.60
2019-03-17T04:25:09.657Z,95.50
2019-03-17T04:27:39.015Z,95.60
2019-03-17T04:30:10.121Z,95.70
2019-03-17T04:32:39.142Z,95.70
2019-03-17T04:35:08.349Z,95.50
2019-03-17T04:37:37.379Z,95.60
2019-03-17T04:40:08.654Z,95.60
2019-03-17T04:42:37.662Z,95.60
2019-03-17T04:45:08.309Z,95.40
2019-03-17T04:47:37.341Z,95.60
2019-03-17T04:50:08.515Z,95.50
2019-03-17T04:52:37.491Z,95.60
2019-03-17T04:55:07.289Z,95.60
2019-03-17T04:57:36.386Z,95.50
2019-03-17T05:00:10.915Z,95.50
2019-03-17T05:02:39.880Z,95.40
2019-03-17T05:05:09.245Z,95.50
2019-03-17T05:07:38.234Z,95.60
2019-03-17T05:10:26.621Z,95.80
2019-03-17T05:12:55.645Z,95.50
2019-03-17T05:15:24.586Z,95.70
2019-03-17T05:17:53.559Z,95.70
2019-03-17T05:20:22.652Z,95.60
2019-03-17T05:22:51.682Z,95.50
2019-03-17T05:25:20.911Z,95.60
2019-03-17T05:27:50.160Z,95.20
2019-03-17T05:30:19.253Z,95.50
2019-03-17T05:32:48.241Z,95.60
2019-03-17T05:35:17.254Z,95.40
2019-03-17T05:37:46.351Z,95.40
2019-03-17T05:40:15.424Z,95.40
2019-03-17T05:42:44.609Z,95.50
2019-03-17T05:45:13.670Z,95.50
2019-03-17T05:47:42.620Z,95.20
2019-03-17T05:50:12.132Z,95.00
2019-03-17T05:52:41.148Z,95.00
2019-03-17T05:55:10.681Z,94.50
2019-03-17T05:57:39.784Z,94.40
2019-03-17T06:00:12.036Z,94.20
2019-03-17T06:02:40.997Z,94.10
2019-03-17T06:05:10.010Z,93.90
2019-03-17T06:07:39.260Z,93.60
2019-03-17T06:10:08.791Z,93.40
2019-03-17T06:12:37.823Z,91.90
2019-03-17T06:15:10.239Z,92.20
2019-03-17T06:17:39.576Z,92.80
2019-03-17T06:20:10.684Z,92.60
2019-03-17T06:22:39.833Z,91.90
2019-03-17T06:25:09.771Z,92.00
2019-03-17T06:27:38.791Z,92.00
2019-03-17T06:30:14.301Z,91.80
2019-03-17T06:32:43.318Z,92.00
2019-03-17T06:35:12.427Z,92.10
2019-03-17T06:37:41.447Z,91.90
2019-03-17T06:40:14.057Z,91.70
2019-03-17T06:42:43.088Z,91.60
2019-03-17T09:37:12.640Z,48.80
2019-03-17T09:39:41.626Z,44.30
2019-03-17T09:42:11.226Z,44.40
2019-03-17T09:44:40.454Z,42.90
2019-03-17T09:47:09.427Z,42.80
2019-03-17T09:49:38.587Z,41.90
2019-03-17T09:52:07.644Z,42.60
2019-03-17T09:54:36.814Z,39.50
2019-03-17T09:57:05.844Z,39.80
2019-03-17T09:59:35.115Z,41.40
2019-03-17T10:02:04.294Z,39.60
2019-03-17T10:04:33.273Z,40.70
2019-03-17T10:07:02.417Z,40.40
2019-03-17T10:09:31.564Z,40.90
2019-03-17T10:12:00.590Z,39.80
2019-03-17T10:14:29.711Z,40.40
2019-03-17T10:16:58.727Z,39.80
2019-03-17T10:19:28.073Z,39.70
2019-03-17T10:21:57.254Z,40.50
2019-03-17T10:24:26.489Z,41.00
2019-03-17T10:26:55.560Z,41.30
2019-03-17T10:29:24.822Z,40.80
2019-03-17T10:31:54.014Z,40.20
2019-03-17T10:34:23.339Z,41.20
2019-03-17T10:36:52.516Z,41.30
2019-03-17T10:39:21.729Z,41.80
2019-03-17T10:41:50.729Z,41.70
2019-03-17T10:44:19.765Z,42.10
2019-03-17T10:46:48.957Z,42.80
2019-03-17T10:49:18.220Z,43.00
2019-03-17T10:51:47.375Z,41.90
2019-03-17T10:54:16.437Z,41.80
2019-03-17T10:56:46.603Z,42.70
2019-03-17T10:59:15.716Z,43.30
2019-03-17T11:01:44.873Z,42.00
2019-03-17T11:04:15.465Z,42.00
2019-03-17T11:06:44.725Z,41.60
2019-03-17T11:09:24.700Z,41.40
2019-03-17T11:11:44.616Z,41.20
2019-03-17T11:14:13.839Z,42.60
2019-03-17T11:16:42.979Z,40.60
2019-03-17T11:19:12.659Z,41.30
2019-03-17T11:21:41.717Z,41.50
2019-03-17T11:24:10.660Z,40.90
2019-03-17T11:26:39.810Z,39.00
2019-03-17T11:29:08.851Z,39.80
2019-03-17T11:31:37.927Z,39.70
2019-03-17T11:34:06.870Z,41.20
2019-03-17T11:36:35.844Z,40.70
2019-03-17T11:39:07.059Z,40.00
2019-03-17T11:41:36.163Z,40.30
2019-03-17T11:44:05.177Z,41.10
2019-03-17T11:46:34.317Z,38.80
2019-03-17T11:49:03.438Z,39.20
2019-03-17T11:51:32.641Z,40.60
2019-03-17T11:54:01.692Z,39.90
2019-03-17T11:56:30.779Z,40.70
2019-03-17T11:58:59.770Z,39.30
2019-03-17T12:01:28.949Z,40.00
2019-03-17T12:03:57.929Z,40.10
2019-03-17T12:06:27.044Z,40.10
2019-03-17T12:08:56.222Z,41.10
2019-03-17T12:11:25.357Z,41.10
2019-03-17T12:13:54.421Z,40.50
2019-03-17T12:16:23.375Z,41.10
2019-03-17T12:18:52.472Z,40.50
2019-03-17T12:21:21.414Z,41.00
2019-03-17T12:23:50.624Z,41.30
2019-03-17T12:26:19.570Z,42.00
2019-03-17T12:28:48.780Z,41.50
2019-03-17T12:31:17.783Z,42.00
2019-03-17T12:33:46.846Z,40.80
2019-03-17T12:36:18.792Z,40.00
2019-03-17T12:38:46.569Z,41.40
2019-03-17T12:41:15.598Z,39.20
2019-03-17T12:43:44.612Z,39.70
2019-03-17T12:46:13.591Z,39.80
2019-03-17T12:48:42.571Z,39.10
2019-03-17T12:51:11.707Z,39.30
2019-03-17T12:53:40.817Z,39.70
2019-03-17T12:56:09.822Z,39.00
2019-03-17T12:58:38.829Z,38.90
2019-03-17T13:01:07.872Z,40.20
2019-03-17T13:03:36.823Z,40.10
2019-03-17T13:06:05.948Z,39.60
2019-03-17T13:08:34.914Z,39.90
2019-03-17T13:11:03.887Z,40.00
2019-03-17T13:13:33.090Z,39.80
2019-03-17T13:16:02.111Z,40.90
2019-03-17T13:18:31.195Z,41.60
2019-03-17T13:21:00.354Z,41.80
2019-03-17T13:23:29.373Z,41.10
2019-03-17T13:25:58.606Z,41.30
2019-03-17T13:28:27.781Z,40.40
2019-03-17T13:30:56.776Z,40.80
2019-03-17T13:33:25.793Z,41.10
2019-03-17T13:35:54.779Z,40.70
2019-03-17T13:38:23.801Z,40.10
2019-03-17T13:40:52.807Z,41.40
2019-03-17T13:43:21.804Z,40.20
2019-03-17T13:45:50.750Z,41.20
2019-03-17T13:48:19.799Z,41.80
2019-03-17T13:50:48.926Z,40.50
2019-03-17T13:53:18.063Z,40.70
2019-03-17T13:55:47.088Z,41.50
2019-03-17T13:58:16.141Z,41.60
2019-03-17T14:00:45.080Z,41.20
2019-03-17T14:03:14.051Z,42.20
2019-03-17T14:05:43.015Z,42.20
2019-03-17T14:08:12.144Z,42.00
2019-03-17T14:10:41.726Z,42.10
2019-03-17T14:13:10.971Z,42.30
2019-03-17T14:15:39.996Z,42.40
2019-03-17T14:18:09.354Z,42.50
2019-03-17T14:20:38.307Z,42.90
2019-03-17T14:23:07.369Z,43.40
2019-03-17T14:25:37.950Z,44.20
2019-03-17T14:28:06.935Z,45.10
2019-03-17T14:30:36.037Z,45.40
2019-03-17T14:33:05.163Z,47.10
2019-03-17T14:35:34.148Z,46.40
2019-03-17T14:38:03.195Z,47.00
2019-03-17T14:40:32.325Z,48.50
2019-03-17T14:43:01.507Z,48.90
2019-03-17T14:45:30.556Z,50.10
2019-03-17T14:47:59.577Z,50.70
2019-03-17T14:50:28.782Z,51.70
2019-03-17T14:53:00.604Z,50.80
2019-03-17T14:55:28.643Z,51.30
2019-03-17T14:57:57.776Z,52.10
2019-03-17T15:00:26.766Z,51.80
2019-03-17T15:02:55.697Z,52.30
2019-03-17T15:05:25.314Z,53.20
2019-03-17T15:07:54.487Z,54.10
2019-03-17T15:10:26.883Z,54.00
2019-03-17T15:12:56.228Z,54.70
2019-03-17T15:15:25.277Z,55.70
2019-03-17T15:17:54.254Z,56.50
2019-03-17T15:20:26.992Z,57.10
2019-03-17T15:22:56.077Z,59.70
2019-03-17T15:25:25.265Z,63.10
2019-03-17T15:27:54.237Z,66.50
2019-03-17T15:30:31.098Z,66.60
2019-03-17T15:33:00.125Z,67.00
2019-03-17T15:35:29.171Z,67.70
2019-03-17T15:37:58.265Z,68.90
2019-03-17T15:40:27.382Z,70.00
2019-03-17T15:42:56.413Z,71.60
2019-03-17T15:45:25.848Z,74.40
2019-03-17T15:47:54.810Z,73.30
2019-03-17T15:50:28.294Z,75.00
2019-03-17T15:52:57.343Z,77.00
2019-03-17T15:55:26.468Z,78.80
2019-03-17T15:57:55.582Z,80.50
2019-03-17T16:00:26.869Z,80.70
2019-03-17T16:02:56.333Z,81.10
2019-03-17T16:05:25.385Z,80.80
2019-03-17T16:07:54.432Z,80.30
2019-03-17T16:10:30.891Z,80.50
2019-03-17T16:12:59.949Z,80.80
2019-03-17T16:15:29.146Z,85.70
2019-03-17T16:17:58.320Z,90.00
2019-03-17T16:20:28.000Z,90.60
2019-03-17T16:22:57.044Z,91.60
2019-03-17T16:25:37.368Z,91.50
2019-03-17T16:28:06.555Z,91.80
2019-03-17T16:30:37.043Z,92.70
2019-03-17T16:33:06.250Z,93.10
2019-03-17T16:35:35.564Z,93.00
2019-03-17T16:38:05.436Z,93.70
2019-03-17T16:40:35.551Z,94.40
2019-03-17T16:43:05.584Z,94.50
2019-03-17T16:45:34.618Z,95.10
2019-03-17T16:48:03.665Z,95.40
2019-03-17T16:50:32.619Z,95.50
2019-03-17T16:53:01.597Z,95.50
2019-03-17T16:55:30.537Z,95.80
2019-03-17T16:57:59.486Z,96.40
2019-03-17T17:00:28.702Z,96.70
2019-03-17T17:02:57.708Z,96.50
2019-03-17T17:05:27.025Z,96.70
2019-03-17T17:07:56.039Z,97.00
2019-03-17T17:10:31.445Z,96.00
2019-03-17T17:13:00.744Z,96.80
2019-03-17T17:15:31.075Z,96.20
2019-03-17T17:18:00.205Z,96.90
2019-03-17T17:20:33.458Z,97.20
2019-03-17T17:23:02.464Z,97.80
2019-03-17T17:25:31.582Z,97.50
2019-03-17T17:28:00.857Z,97.20
2019-03-17T17:30:29.918Z,97.20
2019-03-17T17:46:18.834Z,96.70
2019-03-17T17:48:47.783Z,96.90
2019-03-17T17:51:16.846Z,96.60
2019-03-17T17:53:45.990Z,97.10
2019-03-17T17:56:15.181Z,96.50
2019-03-17T17:58:44.186Z,96.80
2019-03-17T18:01:13.527Z,96.10
2019-03-17T18:03:51.445Z,97.10
2019-03-17T18:06:13.391Z,97.40
2019-03-17T18:08:42.343Z,97.30
2019-03-17T18:11:11.570Z,97.30
2019-03-17T18:13:40.651Z,97.00
2019-03-17T18:16:09.925Z,97.10
2019-03-17T18:18:39.030Z,97.30
2019-03-17T18:21:08.005Z,97.10
2019-03-17T18:23:37.149Z,97.30
2019-03-17T18:26:06.292Z,97.30
2019-03-17T18:28:35.403Z,97.20
2019-03-17T18:31:04.365Z,97.60
2019-03-17T18:33:33.485Z,97.40
2019-03-17T18:36:02.561Z,97.30
2019-03-17T18:38:31.928Z,97.00
2019-03-17T18:41:01.240Z,96.90
2019-03-17T18:43:30.455Z,97.00
2019-03-17T18:45:59.432Z,97.10
2019-03-17T18:48:28.459Z,97.00
2019-03-17T18:50:57.451Z,97.00
2019-03-17T18:53:26.502Z,97.10
2019-03-17T18:55:55.661Z,97.30
2019-03-17T18:58:25.172Z,97.30
2019-03-17T19:00:54.151Z,97.50
2019-03-17T19:03:23.113Z,97.70
2019-03-17T19:05:52.091Z,97.50
2019-03-17T19:08:21.119Z,97.20
2019-03-17T19:10:50.100Z,97.40
2019-03-17T19:13:19.163Z,97.20
2019-03-17T19:15:48.352Z,97.00
2019-03-17T19:18:17.375Z,97.30
2019-03-17T19:20:46.817Z,97.40
2019-03-17T19:23:15.784Z,97.30
2019-03-17T19:25:45.101Z,97.40
2019-03-17T19:28:14.110Z,97.20
2019-03-17T19:30:43.430Z,97.10
2019-03-17T19:33:12.737Z,97.10
2019-03-17T19:35:41.846Z,96.80
2019-03-17T19:38:11.681Z,96.90
2019-03-17T19:40:41.150Z,96.60
2019-03-17T19:43:10.259Z,96.50
2019-03-17T19:45:39.435Z,96.40
2019-03-17T19:48:08.710Z,96.60
2019-03-17T19:50:37.761Z,96.60
2019-03-17T19:53:06.922Z,96.40
2019-03-17T19:55:36.442Z,96.40
2019-03-17T19:58:05.391Z,96.60
2019-03-17T20:00:34.764Z,96.60
2019-03-17T20:03:03.854Z,96.60
2019-03-17T20:05:32.923Z,96.50
2019-03-17T20:08:02.088Z,96.00
2019-03-17T20:10:33.376Z,95.80
2019-03-17T20:13:11.555Z,95.80
2019-03-17T20:15:33.192Z,95.70
2019-03-17T20:18:02.363Z,95.90
2019-03-17T20:20:31.690Z,95.70
2019-03-17T20:23:00.807Z,95.60
2019-03-17T20:25:29.773Z,95.70
2019-03-17T20:27:58.796Z,95.10
2019-03-17T20:30:27.821Z,95.10
2019-03-17T20:32:57.049Z,95.60
2019-03-17T20:35:25.984Z,95.30
2019-03-17T20:37:55.173Z,95.30
2019-03-17T20:40:24.346Z,95.40
2019-03-17T20:42:53.467Z,95.30
2019-03-17T20:45:22.437Z,95.20
2019-03-17T20:47:51.416Z,95.50
2019-03-17T20:50:20.563Z,94.90
2019-03-17T20:52:49.600Z,95.00
2019-03-17T20:55:18.708Z,95.00
2019-03-17T20:57:47.785Z,95.00
2019-03-17T21:00:17.580Z,94.70
2019-03-17T21:02:46.669Z,94.80
2019-03-17T21:05:15.842Z,94.60
2019-03-17T21:07:45.026Z,94.70
2019-03-17T21:10:17.297Z,94.70
2019-03-17T21:12:46.446Z,94.50
2019-03-17T21:15:17.805Z,94.20
2019-03-17T21:17:46.908Z,94.10
2019-03-17T21:20:18.291Z,93.70
2019-03-17T21:22:47.490Z,94.10
2019-03-17T21:25:16.606Z,93.40
2019-03-17T21:27:45.652Z,93.40
2019-03-17T21:30:29.220Z,93.50
2019-03-17T21:32:58.557Z,93.30
2019-03-17T21:35:27.860Z,93.40
2019-03-17T21:37:57.130Z,93.10
2019-03-17T21:40:26.246Z,93.00
2019-03-17T21:42:55.457Z,93.90
2019-03-17T21:45:27.286Z,94.10
2019-03-17T21:47:55.268Z,94.20
2019-03-17T21:50:24.376Z,94.40
2019-03-17T21:52:53.405Z,94.50
2019-03-17T21:55:22.557Z,95.00
2019-03-17T21:57:51.587Z,95.10
2019-03-17T22:00:21.186Z,95.50
2019-03-17T22:02:50.373Z,95.50
2019-03-17T22:05:19.478Z,95.50
2019-03-17T22:07:50.881Z,95.60
2019-03-17T22:10:20.790Z,95.40
2019-03-17T22:12:49.908Z,95.90
2019-03-17T22:15:19.209Z,95.70
2019-03-17T22:17:48.446Z,95.70
2019-03-17T22:20:17.931Z,95.40
2019-03-17T22:22:46.906Z,95.40
2019-03-17T22:25:16.391Z,95.40
2019-03-17T22:27:45.612Z,95.20
2019-03-17T22:30:19.202Z,95.40
2019-03-17T22:32:48.253Z,95.70
2019-03-17T22:35:17.290Z,95.50
2019-03-17T22:37:46.415Z,95.50
2019-03-17T22:40:16.306Z,94.70
2019-03-17T22:42:45.254Z,94.70
2019-03-17T22:45:15.508Z,94.60
2019-03-17T22:47:44.950Z,94.60
2019-03-17T22:50:18.914Z,94.30
2019-03-17T22:52:48.093Z,94.10
2019-03-17T22:55:17.385Z,93.80
2019-03-17T22:57:46.357Z,93.70
2019-03-17T23:00:18.943Z,93.30
2019-03-17T23:02:47.952Z,93.30
2019-03-17T23:05:17.244Z,93.20
2019-03-17T23:07:46.450Z,93.00
2019-03-17T23:10:15.568Z,93.10
2019-03-17T23:12:45.013Z,93.30
2019-03-17T23:15:14.318Z,93.20
2019-03-17T23:17:43.465Z,93.40
2019-03-17T23:20:16.476Z,93.40
2019-03-17T23:22:45.498Z,93.70
2019-03-17T23:25:14.484Z,93.30
2019-03-17T23:27:43.429Z,93.20
2019-03-17T23:30:14.981Z,93.30
2019-03-17T23:32:43.929Z,93.40
2019-03-17T23:35:13.128Z,93.30
2019-03-17T23:37:42.217Z,93.20
2019-03-17T23:40:12.931Z,93.40
2019-03-17T23:42:42.017Z,93.40
2019-03-17T23:45:12.576Z,93.20
2019-03-17T23:47:41.539Z,93.40
2019-03-17T23:50:14.552Z,93.40
2019-03-17T23:52:43.486Z,93.10
2019-03-17T23:55:20.073Z,92.80
2019-03-17T23:57:49.080Z,92.90
